GLD1793 NWWB-NWWW
Flight info
| Callsign | GLD1793 |
|---|---|
| Flight time | 0h 17m |
| Altitude | 4000 |
| Route | TOSAM FWW11 |
| Aircraft | BE58/M-SDFGIRY/S |
Departure
| Time | 2026-05-09 17:25 |
|---|---|
| Airport | Bourail - Poé Airport (NWWB) |
Arrival
| Time | 2026-05-09 17:42 |
|---|---|
| Airport | La Tontouta International Airport (NWWW) |
| Time | Latitude | Longitude | Altitude | Speed | Heading |
|---|---|---|---|---|---|
| 2026-05-09 17:14 | -21.60959 | 165.40114 | -7 ft | 0 kts | 16° |
| 2026-05-09 17:20 | -21.60960 | 165.40103 | -7 ft | 3 kts | 170° |
| 2026-05-09 17:20 | -21.60968 | 165.40111 | -8 ft | 0 kts | 124° |
| 2026-05-09 17:20 | -21.60969 | 165.40112 | -8 ft | 1 kts | 124° |
| 2026-05-09 17:21 | -21.60994 | 165.40135 | -8 ft | 7 kts | 159° |
| 2026-05-09 17:21 | -21.61036 | 165.40124 | -9 ft | 6 kts | 208° |
| 2026-05-09 17:21 | -21.61066 | 165.40084 | -10 ft | 10 kts | 275° |
| 2026-05-09 17:21 | -21.61041 | 165.39999 | -11 ft | 12 kts | 288° |
| 2026-05-09 17:22 | -21.61018 | 165.39911 | -10 ft | 13 kts | 286° |
| 2026-05-09 17:22 | -21.60994 | 165.39825 | -8 ft | 11 kts | 286° |
| 2026-05-09 17:22 | -21.60973 | 165.39753 | -7 ft | 13 kts | 290° |
| 2026-05-09 17:22 | -21.60947 | 165.39663 | -5 ft | 12 kts | 287° |
| 2026-05-09 17:23 | -21.60915 | 165.39560 | -4 ft | 15 kts | 287° |
| 2026-05-09 17:23 | -21.60884 | 165.39462 | -4 ft | 13 kts | 296° |
| 2026-05-09 17:23 | -21.60873 | 165.39418 | -4 ft | 0 kts | 108° |
| 2026-05-09 17:23 | -21.60889 | 165.39475 | -3 ft | 39 kts | 107° |
| 2026-05-09 17:25 | -21.62148 | 165.43721 | 1055 ft | 150 kts | 106° |
| 2026-05-09 17:25 | -21.62424 | 165.44800 | 1432 ft | 151 kts | 108° |
| 2026-05-09 17:25 | -21.62819 | 165.45844 | 1800 ft | 151 kts | 122° |
| 2026-05-09 17:25 | -21.63310 | 165.46853 | 2202 ft | 153 kts | 120° |
| 2026-05-09 17:26 | -21.63767 | 165.47890 | 2620 ft | 154 kts | 117° |
| 2026-05-09 17:26 | -21.64221 | 165.48941 | 3048 ft | 155 kts | 118° |
| 2026-05-09 17:26 | -21.64677 | 165.49990 | 3454 ft | 157 kts | 116° |
| 2026-05-09 17:26 | -21.65138 | 165.51070 | 3870 ft | 160 kts | 116° |
| 2026-05-09 17:27 | -21.65626 | 165.52219 | 3994 ft | 179 kts | 116° |
| 2026-05-09 17:27 | -21.66170 | 165.53481 | 4007 ft | 192 kts | 116° |
| 2026-05-09 17:27 | -21.66740 | 165.54801 | 4005 ft | 201 kts | 116° |
| 2026-05-09 17:27 | -21.67334 | 165.56192 | 4006 ft | 206 kts | 116° |
| 2026-05-09 17:28 | -21.67935 | 165.57597 | 4003 ft | 205 kts | 116° |
| 2026-05-09 17:28 | -21.68516 | 165.58961 | 3997 ft | 195 kts | 116° |
| 2026-05-09 17:28 | -21.69072 | 165.60262 | 3992 ft | 188 kts | 116° |
| 2026-05-09 17:28 | -21.69613 | 165.61523 | 3988 ft | 185 kts | 116° |
| 2026-05-09 17:29 | -21.70148 | 165.62768 | 3984 ft | 184 kts | 116° |
| 2026-05-09 17:29 | -21.70678 | 165.64010 | 3988 ft | 182 kts | 117° |
| 2026-05-09 17:29 | -21.71210 | 165.65252 | 3980 ft | 183 kts | 117° |
| 2026-05-09 17:29 | -21.71745 | 165.66498 | 3978 ft | 182 kts | 116° |
| 2026-05-09 17:30 | -21.72269 | 165.67732 | 3982 ft | 180 kts | 116° |
| 2026-05-09 17:30 | -21.72789 | 165.68953 | 3982 ft | 179 kts | 116° |
| 2026-05-09 17:30 | -21.73311 | 165.70172 | 3982 ft | 179 kts | 116° |
| 2026-05-09 17:30 | -21.73833 | 165.71392 | 3979 ft | 179 kts | 116° |
| 2026-05-09 17:31 | -21.74353 | 165.72605 | 3979 ft | 178 kts | 116° |
| 2026-05-09 17:31 | -21.74867 | 165.73815 | 3983 ft | 179 kts | 116° |
| 2026-05-09 17:32 | -21.76958 | 165.78713 | 3992 ft | 182 kts | 118° |
| 2026-05-09 17:32 | -21.77487 | 165.79951 | 3995 ft | 182 kts | 118° |
| 2026-05-09 17:32 | -21.78013 | 165.81195 | 3997 ft | 182 kts | 117° |
| 2026-05-09 17:33 | -21.78542 | 165.82436 | 3996 ft | 181 kts | 117° |
| 2026-05-09 17:33 | -21.79150 | 165.83614 | 3997 ft | 181 kts | 127° |
| 2026-05-09 17:33 | -21.79855 | 165.84740 | 3998 ft | 181 kts | 126° |
| 2026-05-09 17:33 | -21.80548 | 165.85871 | 3995 ft | 180 kts | 126° |
| 2026-05-09 17:34 | -21.81230 | 165.86992 | 3992 ft | 178 kts | 125° |
| 2026-05-09 17:35 | -21.85305 | 165.93664 | 3983 ft | 179 kts | 126° |
| 2026-05-09 17:35 | -21.85989 | 165.94786 | 3990 ft | 179 kts | 124° |
| 2026-05-09 17:36 | -21.86678 | 165.95913 | 3989 ft | 180 kts | 124° |
| 2026-05-09 17:36 | -21.87364 | 165.97040 | 3989 ft | 180 kts | 125° |
| 2026-05-09 17:36 | -21.88050 | 165.98166 | 3987 ft | 179 kts | 125° |
| 2026-05-09 17:36 | -21.88729 | 165.99281 | 3991 ft | 178 kts | 125° |
| 2026-05-09 17:37 | -21.89415 | 166.00405 | 3989 ft | 180 kts | 125° |
| 2026-05-09 17:37 | -21.90091 | 166.01510 | 3988 ft | 180 kts | 126° |
| 2026-05-09 17:37 | -21.90776 | 166.02637 | 3989 ft | 180 kts | 126° |
| 2026-05-09 17:37 | -21.91463 | 166.03765 | 3990 ft | 179 kts | 125° |
| 2026-05-09 17:38 | -21.92162 | 166.04914 | 3996 ft | 187 kts | 125° |
| 2026-05-09 17:38 | -21.92876 | 166.06086 | 4004 ft | 187 kts | 124° |
| 2026-05-09 17:38 | -21.93559 | 166.07209 | 3996 ft | 173 kts | 125° |
| 2026-05-09 17:39 | -21.94730 | 166.09322 | 3990 ft | 155 kts | 123° |
| 2026-05-09 17:39 | -21.95294 | 166.10332 | 3561 ft | 156 kts | 122° |
| 2026-05-09 17:39 | -21.95855 | 166.11348 | 2934 ft | 158 kts | 122° |
| 2026-05-09 17:39 | -21.96419 | 166.12361 | 2303 ft | 158 kts | 123° |
| 2026-05-09 17:40 | -21.96990 | 166.13367 | 1679 ft | 157 kts | 124° |
| 2026-05-09 17:40 | -21.97553 | 166.14361 | 1169 ft | 151 kts | 125° |
| 2026-05-09 17:40 | -21.98106 | 166.15381 | 828 ft | 162 kts | 123° |
| 2026-05-09 17:40 | -21.98642 | 166.16362 | 723 ft | 139 kts | 124° |
| 2026-05-09 17:41 | -21.99105 | 166.17198 | 556 ft | 125 kts | 126° |
| 2026-05-09 17:41 | -21.99541 | 166.17986 | 444 ft | 118 kts | 126° |
| 2026-05-09 17:41 | -21.99966 | 166.18720 | 290 ft | 113 kts | 128° |
| 2026-05-09 17:41 | -22.00369 | 166.19407 | 188 ft | 101 kts | 128° |
| 2026-05-09 17:42 | -22.00713 | 166.20002 | 28 ft | 88 kts | 126° |
| 2026-05-09 17:42 | -22.00987 | 166.20470 | 12 ft | 61 kts | 123° |
| 2026-05-09 17:42 | -22.01176 | 166.20804 | 16 ft | 45 kts | 121° |
| 2026-05-09 17:42 | -22.01316 | 166.21063 | 17 ft | 36 kts | 120° |
| 2026-05-09 17:43 | -22.01354 | 166.21193 | 17 ft | 0 kts | 66° |
| 2026-05-09 17:43 | -22.01353 | 166.21195 | 17 ft | 0 kts | 66° |
| 2026-05-09 17:43 | -22.01334 | 166.21223 | 17 ft | 10 kts | 46° |
| 2026-05-09 17:43 | -22.01285 | 166.21262 | 17 ft | 8 kts | 32° |
| 2026-05-09 17:44 | -22.01238 | 166.21289 | 17 ft | 7 kts | 28° |
| 2026-05-09 17:44 | -22.01198 | 166.21313 | 17 ft | 6 kts | 28° |
| 2026-05-09 17:44 | -22.01181 | 166.21334 | 17 ft | 3 kts | 167° |
| 2026-05-09 17:44 | -22.01183 | 166.21334 | 17 ft | 0 kts | 193° |